sensor_id;sensor_type;location;lat;lon;timestamp;temperature;humidity
13464;DHT22;6804;48.774;9.174;2022-08-25T00:02:05;23.70;97.70
13464;DHT22;6804;48.774;9.174;2022-08-25T00:04:34;23.70;97.80
13464;DHT22;6804;48.774;9.174;2022-08-25T00:07:02;23.60;97.90
13464;DHT22;6804;48.774;9.174;2022-08-25T00:09:31;23.70;98.00
13464;DHT22;6804;48.774;9.174;2022-08-25T00:12:03;23.70;98.10
13464;DHT22;6804;48.774;9.174;2022-08-25T00:14:35;23.60;98.00
13464;DHT22;6804;48.774;9.174;2022-08-25T00:17:05;23.60;98.10
13464;DHT22;6804;48.774;9.174;2022-08-25T00:19:35;23.60;98.00
13464;DHT22;6804;48.774;9.174;2022-08-25T00:22:05;23.60;98.00
13464;DHT22;6804;48.774;9.174;2022-08-25T00:24:33;23.60;98.30
13464;DHT22;6804;48.774;9.174;2022-08-25T00:27:00;23.40;98.90
13464;DHT22;6804;48.774;9.174;2022-08-25T00:29:29;23.20;99.20
13464;DHT22;6804;48.774;9.174;2022-08-25T00:32:07;23.20;99.30
13464;DHT22;6804;48.774;9.174;2022-08-25T00:34:37;23.10;99.70
13464;DHT22;6804;48.774;9.174;2022-08-25T00:37:06;23.00;99.90
13464;DHT22;6804;48.774;9.174;2022-08-25T00:39:38;22.90;99.90
13464;DHT22;6804;48.774;9.174;2022-08-25T00:42:07;22.90;99.90
13464;DHT22;6804;48.774;9.174;2022-08-25T00:44:35;23.00;99.90
13464;DHT22;6804;48.774;9.174;2022-08-25T00:47:07;23.00;99.90
13464;DHT22;6804;48.774;9.174;2022-08-25T00:49:38;23.00;99.90
13464;DHT22;6804;48.774;9.174;2022-08-25T00:52:09;23.00;99.90
13464;DHT22;6804;48.774;9.174;2022-08-25T00:54:41;22.90;99.90
13464;DHT22;6804;48.774;9.174;2022-08-25T00:57:14;22.90;99.90
13464;DHT22;6804;48.774;9.174;2022-08-25T00:59:42;22.90;99.90
13464;DHT22;6804;48.774;9.174;2022-08-25T01:02:13;22.90;99.90
13464;DHT22;6804;48.774;9.174;2022-08-25T01:04:46;22.90;99.90
13464;DHT22;6804;48.774;9.174;2022-08-25T01:07:18;22.90;99.90
13464;DHT22;6804;48.774;9.174;2022-08-25T01:09:47;22.80;99.90
13464;DHT22;6804;48.774;9.174;2022-08-25T01:12:16;22.80;99.90
13464;DHT22;6804;48.774;9.174;2022-08-25T01:14:48;22.60;99.90
13464;DHT22;6804;48.774;9.174;2022-08-25T01:17:18;22.60;99.90
13464;DHT22;6804;48.774;9.174;2022-08-25T01:19:47;22.60;99.90
13464;DHT22;6804;48.774;9.174;2022-08-25T01:22:16;22.60;99.90
13464;DHT22;6804;48.774;9.174;2022-08-25T01:24:51;22.50;99.90
13464;DHT22;6804;48.774;9.174;2022-08-25T01:27:21;22.50;99.90
13464;DHT22;6804;48.774;9.174;2022-08-25T01:29:48;22.50;99.90
13464;DHT22;6804;48.774;9.174;2022-08-25T01:32:16;22.50;99.90
13464;DHT22;6804;48.774;9.174;2022-08-25T01:34:45;22.50;99.90
13464;DHT22;6804;48.774;9.174;2022-08-25T01:37:18;22.50;99.90
13464;DHT22;6804;48.774;9.174;2022-08-25T01:39:46;22.50;99.90
13464;DHT22;6804;48.774;9.174;2022-08-25T01:42:32;22.50;99.90
13464;DHT22;6804;48.774;9.174;2022-08-25T01:45:07;22.50;99.90
13464;DHT22;6804;48.774;9.174;2022-08-25T01:47:36;22.50;99.90
13464;DHT22;6804;48.774;9.174;2022-08-25T01:50:10;22.40;99.90
13464;DHT22;6804;48.774;9.174;2022-08-25T01:52:54;22.40;99.90
13464;DHT22;6804;48.774;9.174;2022-08-25T01:55:22;22.40;99.90
13464;DHT22;6804;48.774;9.174;2022-08-25T01:57:51;22.40;99.90
13464;DHT22;6804;48.774;9.174;2022-08-25T02:00:22;22.40;99.90
13464;DHT22;6804;48.774;9.174;2022-08-25T02:02:49;22.40;99.90
13464;DHT22;6804;48.774;9.174;2022-08-25T02:05:17;22.40;99.90
13464;DHT22;6804;48.774;9.174;2022-08-25T02:07:46;22.40;99.90
13464;DHT22;6804;48.774;9.174;2022-08-25T02:10:14;22.40;99.90
13464;DHT22;6804;48.774;9.174;2022-08-25T02:12:44;22.40;99.90
13464;DHT22;6804;48.774;9.174;2022-08-25T02:15:11;22.40;99.90
13464;DHT22;6804;48.774;9.174;2022-08-25T02:17:39;22.30;99.90
13464;DHT22;6804;48.774;9.174;2022-08-25T02:20:09;22.30;99.90
13464;DHT22;6804;48.774;9.174;2022-08-25T02:22:37;22.20;99.90
13464;DHT22;6804;48.774;9.174;2022-08-25T02:25:09;22.20;99.90
13464;DHT22;6804;48.774;9.174;2022-08-25T02:27:37;22.10;99.90
13464;DHT22;6804;48.774;9.174;2022-08-25T02:30:08;22.10;99.90
13464;DHT22;6804;48.774;9.174;2022-08-25T02:32:36;22.10;99.90
13464;DHT22;6804;48.774;9.174;2022-08-25T02:35:05;22.10;99.90
13464;DHT22;6804;48.774;9.174;2022-08-25T02:37:33;22.00;99.90
13464;DHT22;6804;48.774;9.174;2022-08-25T02:40:00;21.90;99.90
13464;DHT22;6804;48.774;9.174;2022-08-25T02:42:32;21.80;99.90
13464;DHT22;6804;48.774;9.174;2022-08-25T02:44:59;21.80;99.90
13464;DHT22;6804;48.774;9.174;2022-08-25T02:47:29;21.90;99.90
13464;DHT22;6804;48.774;9.174;2022-08-25T02:49:57;21.80;99.90
13464;DHT22;6804;48.774;9.174;2022-08-25T02:52:25;21.80;99.90
13464;DHT22;6804;48.774;9.174;2022-08-25T02:54:52;21.80;99.90
13464;DHT22;6804;48.774;9.174;2022-08-25T02:57:20;21.80;99.90
13464;DHT22;6804;48.774;9.174;2022-08-25T02:59:49;21.80;99.90
13464;DHT22;6804;48.774;9.174;2022-08-25T03:02:16;21.80;99.90
13464;DHT22;6804;48.774;9.174;2022-08-25T03:04:44;21.80;99.90
13464;DHT22;6804;48.774;9.174;2022-08-25T03:07:12;21.70;99.90
13464;DHT22;6804;48.774;9.174;2022-08-25T03:09:40;21.60;99.90
13464;DHT22;6804;48.774;9.174;2022-08-25T03:12:07;21.60;99.90
13464;DHT22;6804;48.774;9.174;2022-08-25T03:14:39;21.60;99.90
13464;DHT22;6804;48.774;9.174;2022-08-25T03:17:11;21.60;99.90
13464;DHT22;6804;48.774;9.174;2022-08-25T03:19:41;21.60;99.90
13464;DHT22;6804;48.774;9.174;2022-08-25T03:22:09;21.60;99.90
13464;DHT22;6804;48.774;9.174;2022-08-25T03:24:36;21.50;99.90
13464;DHT22;6804;48.774;9.174;2022-08-25T03:27:04;21.40;99.90
13464;DHT22;6804;48.774;9.174;2022-08-25T03:29:31;21.50;99.90
13464;DHT22;6804;48.774;9.174;2022-08-25T03:32:00;21.40;99.90
13464;DHT22;6804;48.774;9.174;2022-08-25T03:34:29;21.40;99.90
13464;DHT22;6804;48.774;9.174;2022-08-25T03:37:00;21.40;99.90
13464;DHT22;6804;48.774;9.174;2022-08-25T03:39:33;21.40;99.90
13464;DHT22;6804;48.774;9.174;2022-08-25T03:42:02;21.40;99.90
13464;DHT22;6804;48.774;9.174;2022-08-25T03:44:32;21.50;99.90
13464;DHT22;6804;48.774;9.174;2022-08-25T03:47:02;21.40;99.90
13464;DHT22;6804;48.774;9.174;2022-08-25T03:49:31;21.30;99.90
13464;DHT22;6804;48.774;9.174;2022-08-25T03:51:59;21.20;99.90
13464;DHT22;6804;48.774;9.174;2022-08-25T03:54:26;20.90;99.90
13464;DHT22;6804;48.774;9.174;2022-08-25T03:56:54;20.80;99.90
13464;DHT22;6804;48.774;9.174;2022-08-25T03:59:24;20.80;99.90
13464;DHT22;6804;48.774;9.174;2022-08-25T04:01:55;20.90;99.90
13464;DHT22;6804;48.774;9.174;2022-08-25T04:04:22;20.90;99.90
13464;DHT22;6804;48.774;9.174;2022-08-25T04:06:51;20.90;99.90
13464;DHT22;6804;48.774;9.174;2022-08-25T04:09:19;21.00;99.90
13464;DHT22;6804;48.774;9.174;2022-08-25T04:11:47;21.10;99.90
13464;DHT22;6804;48.774;9.174;2022-08-25T04:14:17;21.10;99.90
13464;DHT22;6804;48.774;9.174;2022-08-25T04:16:44;21.20;99.90
13464;DHT22;6804;48.774;9.174;2022-08-25T04:19:14;21.10;99.90
13464;DHT22;6804;48.774;9.174;2022-08-25T04:21:45;21.10;99.90
13464;DHT22;6804;48.774;9.174;2022-08-25T04:24:17;21.20;99.90
13464;DHT22;6804;48.774;9.174;2022-08-25T04:26:47;21.20;99.90
13464;DHT22;6804;48.774;9.174;2022-08-25T04:29:17;21.20;99.90
13464;DHT22;6804;48.774;9.174;2022-08-25T04:31:48;21.20;99.90
13464;DHT22;6804;48.774;9.174;2022-08-25T04:34:19;21.20;99.90
13464;DHT22;6804;48.774;9.174;2022-08-25T04:36:48;21.20;99.90
13464;DHT22;6804;48.774;9.174;2022-08-25T04:39:21;21.10;99.90
13464;DHT22;6804;48.774;9.174;2022-08-25T04:41:52;21.10;99.90
13464;DHT22;6804;48.774;9.174;2022-08-25T04:44:20;21.10;99.90
13464;DHT22;6804;48.774;9.174;2022-08-25T04:46:54;21.00;99.90
13464;DHT22;6804;48.774;9.174;2022-08-25T04:49:22;21.10;99.90
13464;DHT22;6804;48.774;9.174;2022-08-25T04:51:50;21.10;99.90
13464;DHT22;6804;48.774;9.174;2022-08-25T04:54:25;21.10;99.90
13464;DHT22;6804;48.774;9.174;2022-08-25T04:56:56;21.00;99.90
13464;DHT22;6804;48.774;9.174;2022-08-25T04:59:23;21.00;99.90
13464;DHT22;6804;48.774;9.174;2022-08-25T05:01:51;21.00;99.90
13464;DHT22;6804;48.774;9.174;2022-08-25T05:04:22;21.00;99.90
13464;DHT22;6804;48.774;9.174;2022-08-25T05:06:50;21.20;99.90
13464;DHT22;6804;48.774;9.174;2022-08-25T05:09:17;21.30;99.90
13464;DHT22;6804;48.774;9.174;2022-08-25T05:11:49;21.50;99.90
13464;DHT22;6804;48.774;9.174;2022-08-25T05:14:17;21.60;99.90
13464;DHT22;6804;48.774;9.174;2022-08-25T05:16:47;21.70;99.90
13464;DHT22;6804;48.774;9.174;2022-08-25T05:19:15;21.80;99.90
13464;DHT22;6804;48.774;9.174;2022-08-25T05:21:46;21.90;99.90
13464;DHT22;6804;48.774;9.174;2022-08-25T05:24:15;22.00;99.90
13464;DHT22;6804;48.774;9.174;2022-08-25T05:26:43;22.10;99.90
13464;DHT22;6804;48.774;9.174;2022-08-25T05:29:12;22.20;99.90
13464;DHT22;6804;48.774;9.174;2022-08-25T05:31:40;22.40;99.90
13464;DHT22;6804;48.774;9.174;2022-08-25T05:34:09;22.50;99.90
13464;DHT22;6804;48.774;9.174;2022-08-25T05:36:37;22.60;99.90
13464;DHT22;6804;48.774;9.174;2022-08-25T05:39:08;22.80;99.90
13464;DHT22;6804;48.774;9.174;2022-08-25T05:41:37;22.90;99.90
13464;DHT22;6804;48.774;9.174;2022-08-25T05:44:07;23.00;99.90
13464;DHT22;6804;48.774;9.174;2022-08-25T05:46:38;23.20;99.90
13464;DHT22;6804;48.774;9.174;2022-08-25T05:49:06;23.40;99.90
13464;DHT22;6804;48.774;9.174;2022-08-25T05:51:33;23.50;99.90
13464;DHT22;6804;48.774;9.174;2022-08-25T05:54:04;23.70;99.90
13464;DHT22;6804;48.774;9.174;2022-08-25T05:56:32;23.80;99.90
13464;DHT22;6804;48.774;9.174;2022-08-25T05:58:59;23.90;99.90
13464;DHT22;6804;48.774;9.174;2022-08-25T06:01:28;24.00;99.90
13464;DHT22;6804;48.774;9.174;2022-08-25T06:04:15;24.00;99.90
13464;DHT22;6804;48.774;9.174;2022-08-25T06:06:42;24.10;99.90
13464;DHT22;6804;48.774;9.174;2022-08-25T06:09:10;24.10;99.90
13464;DHT22;6804;48.774;9.174;2022-08-25T06:11:38;24.00;99.90
13464;DHT22;6804;48.774;9.174;2022-08-25T06:14:07;24.10;99.90
13464;DHT22;6804;48.774;9.174;2022-08-25T06:16:35;24.20;99.90
13464;DHT22;6804;48.774;9.174;2022-08-25T06:19:07;24.40;99.90
13464;DHT22;6804;48.774;9.174;2022-08-25T06:21:37;24.60;99.90
13464;DHT22;6804;48.774;9.174;2022-08-25T06:24:06;24.80;99.90
13464;DHT22;6804;48.774;9.174;2022-08-25T06:26:35;24.90;99.90
13464;DHT22;6804;48.774;9.174;2022-08-25T06:29:05;24.70;99.90
13464;DHT22;6804;48.774;9.174;2022-08-25T06:31:33;24.50;99.90
13464;DHT22;6804;48.774;9.174;2022-08-25T06:34:00;24.30;99.90
13464;DHT22;6804;48.774;9.174;2022-08-25T06:36:28;24.20;99.90
13464;DHT22;6804;48.774;9.174;2022-08-25T06:38:56;24.20;99.90
13464;DHT22;6804;48.774;9.174;2022-08-25T06:41:24;24.60;99.90
13464;DHT22;6804;48.774;9.174;2022-08-25T06:43:58;24.60;99.90
13464;DHT22;6804;48.774;9.174;2022-08-25T06:46:27;24.50;99.90
13464;DHT22;6804;48.774;9.174;2022-08-25T06:48:56;24.50;99.90
13464;DHT22;6804;48.774;9.174;2022-08-25T06:51:29;24.50;99.90
13464;DHT22;6804;48.774;9.174;2022-08-25T06:53:59;24.50;99.90
13464;DHT22;6804;48.774;9.174;2022-08-25T06:56:27;24.50;99.90
13464;DHT22;6804;48.774;9.174;2022-08-25T06:58:59;24.80;99.90
13464;DHT22;6804;48.774;9.174;2022-08-25T07:01:27;25.30;99.90
13464;DHT22;6804;48.774;9.174;2022-08-25T07:03:57;25.30;99.90
13464;DHT22;6804;48.774;9.174;2022-08-25T07:06:30;25.30;99.90
13464;DHT22;6804;48.774;9.174;2022-08-25T07:08:59;25.00;99.90
13464;DHT22;6804;48.774;9.174;2022-08-25T07:11:26;24.90;99.90
13464;DHT22;6804;48.774;9.174;2022-08-25T07:13:59;24.60;99.90
13464;DHT22;6804;48.774;9.174;2022-08-25T07:16:27;24.50;99.90
13464;DHT22;6804;48.774;9.174;2022-08-25T07:18:57;24.50;99.90
13464;DHT22;6804;48.774;9.174;2022-08-25T07:21:30;24.60;99.90
13464;DHT22;6804;48.774;9.174;2022-08-25T07:23:59;25.10;99.90
13464;DHT22;6804;48.774;9.174;2022-08-25T07:26:31;25.50;99.90
13464;DHT22;6804;48.774;9.174;2022-08-25T07:29:00;26.00;99.90
13464;DHT22;6804;48.774;9.174;2022-08-25T07:31:28;26.30;99.90
13464;DHT22;6804;48.774;9.174;2022-08-25T07:33:58;26.30;99.90
13464;DHT22;6804;48.774;9.174;2022-08-25T07:36:43;26.50;99.90
13464;DHT22;6804;48.774;9.174;2022-08-25T07:39:22;26.80;99.90
13464;DHT22;6804;48.774;9.174;2022-08-25T07:41:51;27.00;99.80
13464;DHT22;6804;48.774;9.174;2022-08-25T07:44:19;27.20;99.20
13464;DHT22;6804;48.774;9.174;2022-08-25T07:46:50;27.20;99.30
13464;DHT22;6804;48.774;9.174;2022-08-25T07:49:19;27.20;98.90
13464;DHT22;6804;48.774;9.174;2022-08-25T07:51:49;26.80;99.20
13464;DHT22;6804;48.774;9.174;2022-08-25T07:54:22;26.40;99.90
13464;DHT22;6804;48.774;9.174;2022-08-25T07:56:52;26.00;99.90
13464;DHT22;6804;48.774;9.174;2022-08-25T07:59:21;25.60;99.90
13464;DHT22;6804;48.774;9.174;2022-08-25T08:01:48;25.60;99.90
13464;DHT22;6804;48.774;9.174;2022-08-25T08:04:19;25.40;99.90
13464;DHT22;6804;48.774;9.174;2022-08-25T08:06:49;25.20;99.90
13464;DHT22;6804;48.774;9.174;2022-08-25T08:09:23;25.10;99.90
13464;DHT22;6804;48.774;9.174;2022-08-25T08:11:55;25.20;99.90
13464;DHT22;6804;48.774;9.174;2022-08-25T08:14:23;25.20;99.90
13464;DHT22;6804;48.774;9.174;2022-08-25T08:16:51;25.40;99.90
13464;DHT22;6804;48.774;9.174;2022-08-25T08:19:21;25.60;99.90
13464;DHT22;6804;48.774;9.174;2022-08-25T08:21:49;25.80;99.90
13464;DHT22;6804;48.774;9.174;2022-08-25T08:24:19;25.50;99.90
13464;DHT22;6804;48.774;9.174;2022-08-25T08:26:49;25.50;99.90
13464;DHT22;6804;48.774;9.174;2022-08-25T08:29:25;25.30;99.90
13464;DHT22;6804;48.774;9.174;2022-08-25T08:32:00;25.20;99.90
13464;DHT22;6804;48.774;9.174;2022-08-25T08:34:32;25.50;99.90
13464;DHT22;6804;48.774;9.174;2022-08-25T08:37:00;25.70;99.90
13464;DHT22;6804;48.774;9.174;2022-08-25T08:39:29;25.90;99.90
13464;DHT22;6804;48.774;9.174;2022-08-25T08:42:16;26.00;99.90
13464;DHT22;6804;48.774;9.174;2022-08-25T08:50:48;26.20;99.90
13464;DHT22;6804;48.774;9.174;2022-08-25T08:53:24;25.90;99.90
13464;DHT22;6804;48.774;9.174;2022-08-25T08:56:00;25.70;99.90
13464;DHT22;6804;48.774;9.174;2022-08-25T08:58:41;25.80;99.90
13464;DHT22;6804;48.774;9.174;2022-08-25T09:01:13;25.90;99.90
13464;DHT22;6804;48.774;9.174;2022-08-25T09:03:53;25.80;99.90
13464;DHT22;6804;48.774;9.174;2022-08-25T09:06:26;25.90;99.90
13464;DHT22;6804;48.774;9.174;2022-08-25T09:09:02;26.20;99.90
13464;DHT22;6804;48.774;9.174;2022-08-25T09:11:43;26.50;99.90
13464;DHT22;6804;48.774;9.174;2022-08-25T09:14:34;26.40;99.90
13464;DHT22;6804;48.774;9.174;2022-08-25T09:17:08;26.20;99.90
13464;DHT22;6804;48.774;9.174;2022-08-25T09:20:27;26.10;99.90
13464;DHT22;6804;48.774;9.174;2022-08-25T09:23:02;26.00;99.90
13464;DHT22;6804;48.774;9.174;2022-08-25T09:25:40;25.90;99.90
13464;DHT22;6804;48.774;9.174;2022-08-25T09:28:18;25.80;99.90
13464;DHT22;6804;48.774;9.174;2022-08-25T09:30:56;26.00;99.90
13464;DHT22;6804;48.774;9.174;2022-08-25T09:33:29;26.10;99.50
13464;DHT22;6804;48.774;9.174;2022-08-25T09:35:57;26.30;99.50
13464;DHT22;6804;48.774;9.174;2022-08-25T09:38:26;26.70;99.30
13464;DHT22;6804;48.774;9.174;2022-08-25T09:40:55;27.10;98.60
13464;DHT22;6804;48.774;9.174;2022-08-25T09:43:29;27.10;97.80
13464;DHT22;6804;48.774;9.174;2022-08-25T09:46:09;27.10;97.70
13464;DHT22;6804;48.774;9.174;2022-08-25T09:48:44;27.10;97.60
13464;DHT22;6804;48.774;9.174;2022-08-25T09:51:17;27.10;97.60
13464;DHT22;6804;48.774;9.174;2022-08-25T09:53:49;27.10;97.30
13464;DHT22;6804;48.774;9.174;2022-08-25T09:56:25;27.20;97.30
13464;DHT22;6804;48.774;9.174;2022-08-25T09:58:54;27.60;96.70
13464;DHT22;6804;48.774;9.174;2022-08-25T10:01:27;27.90;96.60
13464;DHT22;6804;48.774;9.174;2022-08-25T10:04:00;28.00;95.60
13464;DHT22;6804;48.774;9.174;2022-08-25T10:06:33;27.60;96.20
13464;DHT22;6804;48.774;9.174;2022-08-25T10:09:04;27.40;96.60
13464;DHT22;6804;48.774;9.174;2022-08-25T10:11:39;27.30;97.50
13464;DHT22;6804;48.774;9.174;2022-08-25T10:14:26;27.30;96.70
13464;DHT22;6804;48.774;9.174;2022-08-25T10:17:13;27.40;96.10
13464;DHT22;6804;48.774;9.174;2022-08-25T10:19:44;27.50;96.50
13464;DHT22;6804;48.774;9.174;2022-08-25T10:22:20;27.80;95.90
13464;DHT22;6804;48.774;9.174;2022-08-25T10:24:58;27.90;94.50
13464;DHT22;6804;48.774;9.174;2022-08-25T10:27:35;28.00;94.40
13464;DHT22;6804;48.774;9.174;2022-08-25T10:30:16;27.90;93.80
13464;DHT22;6804;48.774;9.174;2022-08-25T10:33:11;28.00;94.00
13464;DHT22;6804;48.774;9.174;2022-08-25T10:35:55;28.50;93.70
13464;DHT22;6804;48.774;9.174;2022-08-25T10:38:35;28.90;93.40
13464;DHT22;6804;48.774;9.174;2022-08-25T10:41:20;29.30;92.90
13464;DHT22;6804;48.774;9.174;2022-08-25T10:44:00;29.60;91.10
13464;DHT22;6804;48.774;9.174;2022-08-25T10:46:40;29.90;91.10
13464;DHT22;6804;48.774;9.174;2022-08-25T10:49:17;30.10;90.00
13464;DHT22;6804;48.774;9.174;2022-08-25T10:51:54;29.50;90.10
13464;DHT22;6804;48.774;9.174;2022-08-25T10:54:39;29.50;91.10
13464;DHT22;6804;48.774;9.174;2022-08-25T10:57:18;29.80;90.60
13464;DHT22;6804;48.774;9.174;2022-08-25T10:59:59;30.10;90.20
13464;DHT22;6804;48.774;9.174;2022-08-25T11:05:32;30.70;88.70
13464;DHT22;6804;48.774;9.174;2022-08-25T11:08:09;30.60;86.00
13464;DHT22;6804;48.774;9.174;2022-08-25T11:10:43;29.70;87.40
13464;DHT22;6804;48.774;9.174;2022-08-25T11:13:20;29.20;89.90
13464;DHT22;6804;48.774;9.174;2022-08-25T11:15:52;29.20;89.60
13464;DHT22;6804;48.774;9.174;2022-08-25T11:18:21;29.60;90.00
13464;DHT22;6804;48.774;9.174;2022-08-25T11:20:57;29.80;87.80
13464;DHT22;6804;48.774;9.174;2022-08-25T11:23:30;29.50;88.60
13464;DHT22;6804;48.774;9.174;2022-08-25T11:26:06;28.80;88.50
13464;DHT22;6804;48.774;9.174;2022-08-25T11:28:48;28.40;90.40
13464;DHT22;6804;48.774;9.174;2022-08-25T11:31:25;28.70;89.00
13464;DHT22;6804;48.774;9.174;2022-08-25T11:34:00;28.60;89.10
13464;DHT22;6804;48.774;9.174;2022-08-25T11:36:35;28.50;90.00
13464;DHT22;6804;48.774;9.174;2022-08-25T11:39:15;28.70;90.00
13464;DHT22;6804;48.774;9.174;2022-08-25T11:41:54;29.00;89.00
13464;DHT22;6804;48.774;9.174;2022-08-25T11:44:50;29.30;88.20
13464;DHT22;6804;48.774;9.174;2022-08-25T11:47:39;29.60;86.20
13464;DHT22;6804;48.774;9.174;2022-08-25T11:50:27;29.90;84.60
13464;DHT22;6804;48.774;9.174;2022-08-25T11:53:16;30.10;84.10
13464;DHT22;6804;48.774;9.174;2022-08-25T11:55:48;30.30;83.10
13464;DHT22;6804;48.774;9.174;2022-08-25T11:58:44;30.30;81.30
13464;DHT22;6804;48.774;9.174;2022-08-25T12:04:34;29.90;81.10
13464;DHT22;6804;48.774;9.174;2022-08-25T12:07:25;29.60;79.20
13464;DHT22;6804;48.774;9.174;2022-08-25T12:10:18;29.20;82.20
13464;DHT22;6804;48.774;9.174;2022-08-25T12:13:25;29.10;83.00
13464;DHT22;6804;48.774;9.174;2022-08-25T12:15:59;29.50;81.90
13464;DHT22;6804;48.774;9.174;2022-08-25T12:18:44;29.80;80.30
13464;DHT22;6804;48.774;9.174;2022-08-25T12:21:29;30.10;80.20
13464;DHT22;6804;48.774;9.174;2022-08-25T12:24:19;30.30;80.70
13464;DHT22;6804;48.774;9.174;2022-08-25T12:27:05;30.40;80.00
13464;DHT22;6804;48.774;9.174;2022-08-25T12:29:42;30.30;81.80
13464;DHT22;6804;48.774;9.174;2022-08-25T12:32:26;30.40;80.90
13464;DHT22;6804;48.774;9.174;2022-08-25T12:35:25;30.40;81.80
13464;DHT22;6804;48.774;9.174;2022-08-25T12:37:59;30.60;79.80
13464;DHT22;6804;48.774;9.174;2022-08-25T12:40:31;30.90;78.70
13464;DHT22;6804;48.774;9.174;2022-08-25T12:43:09;31.30;78.10
13464;DHT22;6804;48.774;9.174;2022-08-25T12:45:43;31.50;77.30
13464;DHT22;6804;48.774;9.174;2022-08-25T12:51:25;30.70;81.40
13464;DHT22;6804;48.774;9.174;2022-08-25T12:54:00;30.60;79.40
13464;DHT22;6804;48.774;9.174;2022-08-25T12:56:41;30.90;79.10
13464;DHT22;6804;48.774;9.174;2022-08-25T12:59:16;31.20;77.40
13464;DHT22;6804;48.774;9.174;2022-08-25T13:02:17;31.50;76.90
13464;DHT22;6804;48.774;9.174;2022-08-25T13:05:02;31.70;74.20
13464;DHT22;6804;48.774;9.174;2022-08-25T13:07:59;31.60;75.60
13464;DHT22;6804;48.774;9.174;2022-08-25T13:10:45;31.50;75.50
13464;DHT22;6804;48.774;9.174;2022-08-25T13:13:30;30.90;73.20
13464;DHT22;6804;48.774;9.174;2022-08-25T13:16:16;30.60;75.60
13464;DHT22;6804;48.774;9.174;2022-08-25T13:18:45;30.00;76.80
13464;DHT22;6804;48.774;9.174;2022-08-25T13:21:16;29.80;78.60
13464;DHT22;6804;48.774;9.174;2022-08-25T13:23:46;29.50;79.90
13464;DHT22;6804;48.774;9.174;2022-08-25T13:26:22;29.40;80.10
13464;DHT22;6804;48.774;9.174;2022-08-25T13:28:55;29.30;79.80
13464;DHT22;6804;48.774;9.174;2022-08-25T13:31:29;29.10;79.70
13464;DHT22;6804;48.774;9.174;2022-08-25T13:33:59;29.30;79.60
13464;DHT22;6804;48.774;9.174;2022-08-25T13:36:35;29.50;79.70
13464;DHT22;6804;48.774;9.174;2022-08-25T13:39:26;29.60;79.90
13464;DHT22;6804;48.774;9.174;2022-08-25T13:41:56;29.80;78.60
13464;DHT22;6804;48.774;9.174;2022-08-25T13:44:30;30.10;78.00
13464;DHT22;6804;48.774;9.174;2022-08-25T13:47:09;30.40;76.20
13464;DHT22;6804;48.774;9.174;2022-08-25T13:49:42;30.60;76.00
13464;DHT22;6804;48.774;9.174;2022-08-25T13:52:18;30.50;77.10
13464;DHT22;6804;48.774;9.174;2022-08-25T13:55:00;30.00;78.80
13464;DHT22;6804;48.774;9.174;2022-08-25T13:57:30;29.80;80.10
13464;DHT22;6804;48.774;9.174;2022-08-25T14:00:05;29.80;80.40
13464;DHT22;6804;48.774;9.174;2022-08-25T14:02:45;29.80;79.80
13464;DHT22;6804;48.774;9.174;2022-08-25T14:05:30;29.90;79.70
13464;DHT22;6804;48.774;9.174;2022-08-25T14:07:58;29.90;79.70
13464;DHT22;6804;48.774;9.174;2022-08-25T14:10:36;30.10;79.40
13464;DHT22;6804;48.774;9.174;2022-08-25T14:13:15;30.30;78.00
13464;DHT22;6804;48.774;9.174;2022-08-25T14:16:08;30.50;75.90
13464;DHT22;6804;48.774;9.174;2022-08-25T14:18:52;30.80;75.80
13464;DHT22;6804;48.774;9.174;2022-08-25T14:21:24;31.10;76.00
13464;DHT22;6804;48.774;9.174;2022-08-25T14:24:00;31.30;75.90
13464;DHT22;6804;48.774;9.174;2022-08-25T14:26:31;31.50;75.60
13464;DHT22;6804;48.774;9.174;2022-08-25T14:28:59;31.70;74.90
13464;DHT22;6804;48.774;9.174;2022-08-25T14:31:29;31.50;75.50
13464;DHT22;6804;48.774;9.174;2022-08-25T14:34:03;31.00;74.70
13464;DHT22;6804;48.774;9.174;2022-08-25T14:36:32;30.70;75.70
13464;DHT22;6804;48.774;9.174;2022-08-25T14:39:02;30.70;76.60
13464;DHT22;6804;48.774;9.174;2022-08-25T14:41:35;30.60;77.10
13464;DHT22;6804;48.774;9.174;2022-08-25T14:44:04;30.70;76.60
13464;DHT22;6804;48.774;9.174;2022-08-25T14:46:34;30.90;76.80
13464;DHT22;6804;48.774;9.174;2022-08-25T14:49:08;31.00;76.50
13464;DHT22;6804;48.774;9.174;2022-08-25T14:51:39;31.10;76.00
13464;DHT22;6804;48.774;9.174;2022-08-25T14:54:11;31.20;75.70
13464;DHT22;6804;48.774;9.174;2022-08-25T14:56:40;31.40;75.70
13464;DHT22;6804;48.774;9.174;2022-08-25T14:59:11;31.40;75.50
13464;DHT22;6804;48.774;9.174;2022-08-25T15:01:39;31.60;75.20
13464;DHT22;6804;48.774;9.174;2022-08-25T15:04:11;31.70;74.60
13464;DHT22;6804;48.774;9.174;2022-08-25T15:06:41;31.70;74.20
13464;DHT22;6804;48.774;9.174;2022-08-25T15:09:12;31.40;73.00
13464;DHT22;6804;48.774;9.174;2022-08-25T15:11:45;31.20;74.00
13464;DHT22;6804;48.774;9.174;2022-08-25T15:14:16;31.20;73.70
13464;DHT22;6804;48.774;9.174;2022-08-25T15:16:49;30.80;74.60
13464;DHT22;6804;48.774;9.174;2022-08-25T15:19:21;30.70;75.50
13464;DHT22;6804;48.774;9.174;2022-08-25T15:21:51;30.40;77.70
13464;DHT22;6804;48.774;9.174;2022-08-25T15:24:22;30.10;78.10
13464;DHT22;6804;48.774;9.174;2022-08-25T15:26:54;30.00;78.50
13464;DHT22;6804;48.774;9.174;2022-08-25T15:29:28;29.90;79.10
13464;DHT22;6804;48.774;9.174;2022-08-25T15:31:58;29.80;79.60
13464;DHT22;6804;48.774;9.174;2022-08-25T15:34:29;29.70;79.80
13464;DHT22;6804;48.774;9.174;2022-08-25T15:37:05;29.60;80.00
13464;DHT22;6804;48.774;9.174;2022-08-25T15:39:43;29.60;80.20
13464;DHT22;6804;48.774;9.174;2022-08-25T15:42:13;29.50;80.60
13464;DHT22;6804;48.774;9.174;2022-08-25T15:44:42;29.40;80.90
13464;DHT22;6804;48.774;9.174;2022-08-25T15:47:11;29.30;80.80
13464;DHT22;6804;48.774;9.174;2022-08-25T15:49:43;29.20;80.90
13464;DHT22;6804;48.774;9.174;2022-08-25T15:52:14;29.20;80.80
13464;DHT22;6804;48.774;9.174;2022-08-25T15:54:43;29.20;80.90
13464;DHT22;6804;48.774;9.174;2022-08-25T15:57:15;29.30;80.60
13464;DHT22;6804;48.774;9.174;2022-08-25T15:59:44;29.40;80.30
13464;DHT22;6804;48.774;9.174;2022-08-25T16:02:12;29.40;79.90
13464;DHT22;6804;48.774;9.174;2022-08-25T16:04:42;29.50;79.70
13464;DHT22;6804;48.774;9.174;2022-08-25T16:07:11;29.50;79.70
13464;DHT22;6804;48.774;9.174;2022-08-25T16:09:40;29.50;79.70
13464;DHT22;6804;48.774;9.174;2022-08-25T16:12:13;29.50;79.80
13464;DHT22;6804;48.774;9.174;2022-08-25T16:14:42;29.60;80.00
13464;DHT22;6804;48.774;9.174;2022-08-25T16:17:11;29.60;80.00
13464;DHT22;6804;48.774;9.174;2022-08-25T16:19:43;29.60;80.10
13464;DHT22;6804;48.774;9.174;2022-08-25T16:22:14;29.60;80.10
13464;DHT22;6804;48.774;9.174;2022-08-25T16:24:45;29.50;80.20
13464;DHT22;6804;48.774;9.174;2022-08-25T16:27:14;29.60;80.30
13464;DHT22;6804;48.774;9.174;2022-08-25T16:29:44;29.60;80.20
13464;DHT22;6804;48.774;9.174;2022-08-25T16:32:14;29.60;80.10
13464;DHT22;6804;48.774;9.174;2022-08-25T16:34:46;29.50;79.90
13464;DHT22;6804;48.774;9.174;2022-08-25T16:37:14;29.60;79.90